createdAt,value
2022-08-17T00:00:34.298Z,17.54
2022-08-17T00:03:10.358Z,17.62
2022-08-17T00:05:42.714Z,17.70
2022-08-17T00:08:10.777Z,17.74
2022-08-17T00:10:40.501Z,17.74
2022-08-17T00:13:11.043Z,17.79
2022-08-17T00:15:38.950Z,17.83
2022-08-17T00:19:01.748Z,17.83
2022-08-17T00:20:55.809Z,17.82
2022-08-17T00:23:24.247Z,17.83
2022-08-17T00:25:54.209Z,17.77
2022-08-17T00:28:22.412Z,17.70
2022-08-17T00:30:53.558Z,17.68
2022-08-17T00:33:25.934Z,17.64
2022-08-17T00:35:55.140Z,17.63
2022-08-17T00:38:24.739Z,17.61
2022-08-17T00:40:59.030Z,17.60
2022-08-17T00:43:32.151Z,17.57
2022-08-17T00:46:02.780Z,17.57
2022-08-17T00:48:31.692Z,17.52
2022-08-17T00:51:07.636Z,17.54
2022-08-17T00:53:40.055Z,17.52
2022-08-17T00:56:13.093Z,17.55
2022-08-17T00:58:42.213Z,17.53
2022-08-17T01:01:12.357Z,17.47
2022-08-17T01:03:49.626Z,17.40
2022-08-17T01:06:17.474Z,17.33
2022-08-17T01:08:46.121Z,17.32
2022-08-17T01:11:15.386Z,17.33
2022-08-17T01:13:45.710Z,17.37
2022-08-17T01:16:17.596Z,17.41
2022-08-17T01:18:48.772Z,17.44
2022-08-17T01:21:22.134Z,17.46
2022-08-17T01:23:51.381Z,17.48
2022-08-17T01:26:19.576Z,17.48
2022-08-17T01:28:54.204Z,17.42
2022-08-17T01:31:24.879Z,17.33
2022-08-17T01:33:52.914Z,16.99
2022-08-17T01:36:20.622Z,16.96
2022-08-17T01:38:48.799Z,16.95
2022-08-17T01:41:18.028Z,16.89
2022-08-17T01:43:50.049Z,16.84
2022-08-17T01:46:23.439Z,16.85
2022-08-17T01:48:51.875Z,16.87
2022-08-17T01:51:20.078Z,16.90
2022-08-17T01:53:51.379Z,16.92
2022-08-17T01:56:23.892Z,16.95
2022-08-17T01:58:52.639Z,16.92
2022-08-17T02:01:22.769Z,16.94
2022-08-17T02:03:56.156Z,16.96
2022-08-17T02:06:29.928Z,16.97
2022-08-17T02:09:02.978Z,17.01
2022-08-17T02:11:35.084Z,17.07
2022-08-17T02:14:04.120Z,17.13
2022-08-17T02:16:36.984Z,17.16
2022-08-17T02:19:07.512Z,17.14
2022-08-17T02:21:35.255Z,17.13
2022-08-17T02:24:04.695Z,17.08
2022-08-17T02:26:33.774Z,17.02
2022-08-17T02:29:01.984Z,16.98
2022-08-17T02:31:30.047Z,16.94
2022-08-17T02:34:03.473Z,16.91
2022-08-17T02:36:33.011Z,16.89
2022-08-17T02:39:01.703Z,16.84
2022-08-17T02:41:29.470Z,16.63
2022-08-17T02:43:59.301Z,16.67
2022-08-17T02:46:28.209Z,16.56
2022-08-17T02:48:56.253Z,16.49
2022-08-17T02:51:23.938Z,16.49
2022-08-17T02:53:52.218Z,16.40
2022-08-17T02:56:20.731Z,16.33
2022-08-17T02:58:48.455Z,16.32
2022-08-17T03:01:18.340Z,16.34
2022-08-17T03:03:46.197Z,16.36
2022-08-17T03:06:14.179Z,16.36
2022-08-17T03:08:41.824Z,16.37
2022-08-17T03:11:10.776Z,16.39
2022-08-17T03:13:38.434Z,16.34
2022-08-17T03:16:07.286Z,16.25
2022-08-17T03:18:36.740Z,16.32
2022-08-17T03:21:08.778Z,16.33
2022-08-17T03:23:40.971Z,16.13
2022-08-17T03:26:12.304Z,15.98
2022-08-17T03:28:43.429Z,15.82
2022-08-17T03:31:11.878Z,15.78
2022-08-17T03:33:41.231Z,15.72
2022-08-17T03:36:10.111Z,15.74
2022-08-17T03:38:39.291Z,15.81
2022-08-17T03:41:08.210Z,15.79
2022-08-17T03:43:35.864Z,15.83
2022-08-17T03:46:27.823Z,15.83
2022-08-17T03:49:22.697Z,15.86
2022-08-17T03:52:08.753Z,15.88
2022-08-17T03:54:54.320Z,15.96
2022-08-17T03:57:22.811Z,16.03
2022-08-17T03:59:51.169Z,16.10
2022-08-17T04:02:22.436Z,16.14
2022-08-17T04:04:52.714Z,16.19
2022-08-17T04:07:21.573Z,16.20
2022-08-17T04:09:50.254Z,16.23
2022-08-17T04:12:20.514Z,16.25
2022-08-17T04:14:53.245Z,16.29
2022-08-17T04:17:24.141Z,16.38
2022-08-17T04:19:54.046Z,16.42
2022-08-17T04:22:31.024Z,16.43
2022-08-17T04:25:04.673Z,16.40
2022-08-17T04:27:32.352Z,16.44
2022-08-17T04:30:00.380Z,16.26
2022-08-17T04:33:09.852Z,16.10
2022-08-17T04:35:21.407Z,15.97
2022-08-17T04:37:49.118Z,15.84
2022-08-17T04:40:35.285Z,15.85
2022-08-17T04:43:05.077Z,15.77
2022-08-17T04:45:33.533Z,15.66
2022-08-17T04:48:01.358Z,15.67
2022-08-17T04:50:30.454Z,15.67
2022-08-17T04:52:58.448Z,15.72
2022-08-17T04:55:26.960Z,15.79
2022-08-17T04:57:54.783Z,15.82
2022-08-17T05:00:25.629Z,15.86
2022-08-17T05:02:55.614Z,15.93
2022-08-17T05:05:26.196Z,16.04
2022-08-17T05:07:59.211Z,16.08
2022-08-17T05:10:29.627Z,16.17
2022-08-17T05:13:01.720Z,16.27
2022-08-17T05:15:33.187Z,16.28
2022-08-17T05:18:04.330Z,16.37
2022-08-17T05:20:32.576Z,16.51
2022-08-17T05:23:04.863Z,16.69
2022-08-17T05:25:36.289Z,16.89
2022-08-17T05:28:05.858Z,17.01
2022-08-17T05:30:35.721Z,17.13
2022-08-17T05:33:06.678Z,17.24
2022-08-17T05:35:37.399Z,17.31
2022-08-17T05:38:07.995Z,17.29
2022-08-17T05:40:36.886Z,17.41
2022-08-17T05:43:07.896Z,17.53
2022-08-17T05:45:55.430Z,17.79
2022-08-17T05:48:39.650Z,18.02
2022-08-17T05:51:40.113Z,18.20
2022-08-17T05:54:29.961Z,18.43
2022-08-17T05:57:20.966Z,18.66
2022-08-17T05:59:59.122Z,18.86
2022-08-17T06:02:47.511Z,19.12
2022-08-17T06:05:32.451Z,19.42
2022-08-17T06:08:10.244Z,19.71
2022-08-17T06:10:46.463Z,19.87
2022-08-17T06:13:24.290Z,20.14
2022-08-17T06:15:59.948Z,20.35
2022-08-17T06:18:32.558Z,20.48
2022-08-17T06:21:04.370Z,20.72
2022-08-17T06:23:36.190Z,20.89
2022-08-17T06:26:13.268Z,21.04
2022-08-17T06:28:48.742Z,21.27
2022-08-17T06:31:27.414Z,21.44
2022-08-17T06:33:56.823Z,21.54
2022-08-17T06:36:41.236Z,21.75
2022-08-17T06:39:22.761Z,21.85
2022-08-17T06:42:01.404Z,22.03
2022-08-17T06:44:42.335Z,22.34
2022-08-17T06:47:28.026Z,22.53
2022-08-17T06:50:18.236Z,22.63
2022-08-17T06:52:54.049Z,22.76
2022-08-17T06:55:33.184Z,22.98
2022-08-17T06:58:16.272Z,23.12
2022-08-17T07:00:47.491Z,22.73
2022-08-17T07:03:25.018Z,22.79
2022-08-17T07:05:55.721Z,22.87
2022-08-17T07:08:35.124Z,23.18
2022-08-17T07:11:14.465Z,23.27
2022-08-17T07:13:51.788Z,22.97
2022-08-17T07:16:31.699Z,23.06
2022-08-17T07:19:00.129Z,23.05
2022-08-17T07:21:40.770Z,23.29
2022-08-17T07:24:26.323Z,23.35
2022-08-17T07:27:10.861Z,23.53
2022-08-17T07:29:44.716Z,23.65
2022-08-17T07:32:18.321Z,23.70
2022-08-17T07:35:12.344Z,24.09
2022-08-17T07:37:46.080Z,24.23
2022-08-17T07:40:22.094Z,24.55
2022-08-17T07:43:21.810Z,24.53
2022-08-17T07:46:37.154Z,24.81
2022-08-17T07:49:24.543Z,24.59
2022-08-17T07:52:47.492Z,24.77
2022-08-17T07:54:49.702Z,25.13
2022-08-17T07:57:41.223Z,25.06
2022-08-17T08:00:23.913Z,24.76
2022-08-17T08:03:16.605Z,25.07
2022-08-17T08:05:57.358Z,25.21
2022-08-17T08:08:32.336Z,25.38
2022-08-17T08:11:05.264Z,25.51
2022-08-17T08:13:34.719Z,25.41
2022-08-17T08:16:25.463Z,25.75
2022-08-17T08:18:58.024Z,26.10
2022-08-17T08:21:41.683Z,26.54
2022-08-17T08:24:30.764Z,26.79
2022-08-17T08:27:09.152Z,27.02
2022-08-17T08:29:48.876Z,27.10
2022-08-17T08:32:22.535Z,27.50
2022-08-17T08:35:03.725Z,26.94
2022-08-17T08:37:43.805Z,27.60
2022-08-17T08:40:31.638Z,27.77
2022-08-17T08:43:08.696Z,27.40
2022-08-17T08:45:43.686Z,27.95
2022-08-17T08:48:56.563Z,27.97
2022-08-17T08:51:27.785Z,27.91
2022-08-17T08:54:03.774Z,28.02
2022-08-17T08:56:38.119Z,28.01
2022-08-17T08:59:21.466Z,28.53
2022-08-17T09:02:01.288Z,28.83
2022-08-17T09:05:13.467Z,28.85
2022-08-17T09:07:56.318Z,29.20
2022-08-17T09:10:30.669Z,28.94
2022-08-17T09:13:10.147Z,29.76
2022-08-17T09:15:43.404Z,29.88
2022-08-17T09:19:02.720Z,30.24
2022-08-17T09:21:11.668Z,30.27
2022-08-17T09:23:46.612Z,30.79
2022-08-17T09:26:22.752Z,31.20
2022-08-17T09:28:52.750Z,31.30
2022-08-17T09:31:26.798Z,31.30
2022-08-17T09:34:01.182Z,31.58
2022-08-17T09:36:33.822Z,31.82
2022-08-17T09:39:07.176Z,32.06
2022-08-17T09:41:39.916Z,32.34
2022-08-17T09:44:24.767Z,32.43
2022-08-17T09:46:56.267Z,32.66
2022-08-17T09:49:31.390Z,32.56
2022-08-17T09:52:04.656Z,32.57
2022-08-17T09:54:39.962Z,32.12
2022-08-17T09:57:31.501Z,32.09
2022-08-17T10:00:16.049Z,32.70
2022-08-17T10:03:16.186Z,32.24
2022-08-17T10:05:51.298Z,32.52
2022-08-17T10:08:33.829Z,32.88
2022-08-17T10:11:15.402Z,32.09
2022-08-17T10:13:52.904Z,32.21
2022-08-17T10:16:27.058Z,32.41
2022-08-17T10:19:03.738Z,32.69
2022-08-17T10:22:00.976Z,32.65
2022-08-17T10:25:22.149Z,32.40
2022-08-17T10:27:57.866Z,32.54
2022-08-17T10:30:32.810Z,32.77
2022-08-17T10:33:03.792Z,33.01
2022-08-17T10:35:40.632Z,32.85
2022-08-17T10:38:34.431Z,32.93
2022-08-17T10:41:13.066Z,32.89
2022-08-17T10:44:37.585Z,32.17
2022-08-17T10:46:54.531Z,32.52
2022-08-17T10:49:29.246Z,32.94
2022-08-17T10:52:00.416Z,33.01
2022-08-17T10:54:37.592Z,32.95
2022-08-17T10:57:40.347Z,32.73
2022-08-17T11:00:15.100Z,32.32
2022-08-17T11:02:52.149Z,32.30
2022-08-17T11:05:43.962Z,31.91
2022-08-17T11:08:45.070Z,32.51
2022-08-17T11:11:35.799Z,32.75
2022-08-17T11:14:23.689Z,32.98
2022-08-17T11:17:11.575Z,33.03
2022-08-17T11:20:15.166Z,33.31
2022-08-17T11:23:19.015Z,33.11
2022-08-17T11:25:52.111Z,32.73
2022-08-17T11:28:23.532Z,31.73
2022-08-17T11:30:55.343Z,31.15
2022-08-17T11:33:53.656Z,30.96
2022-08-17T11:36:37.506Z,30.45
2022-08-17T11:39:19.660Z,30.77
2022-08-17T11:41:55.121Z,30.50
2022-08-17T11:44:37.592Z,30.13
2022-08-17T11:47:33.858Z,30.06
2022-08-17T11:50:36.581Z,29.62
2022-08-17T11:53:04.474Z,29.71
2022-08-17T11:56:04.507Z,29.86
2022-08-17T11:58:41.298Z,29.76
2022-08-17T12:01:13.601Z,29.63
2022-08-17T12:03:55.595Z,29.28
2022-08-17T12:06:46.963Z,29.66
2022-08-17T12:09:19.982Z,29.54
2022-08-17T12:11:55.508Z,29.72
2022-08-17T12:15:08.906Z,29.76
2022-08-17T12:17:39.203Z,29.74
2022-08-17T12:20:14.729Z,29.58
2022-08-17T12:22:55.090Z,29.49
2022-08-17T12:25:30.324Z,29.37
2022-08-17T12:28:05.308Z,29.32
2022-08-17T12:30:36.598Z,28.95
2022-08-17T12:33:11.300Z,29.34
2022-08-17T12:35:39.794Z,29.00
2022-08-17T12:38:26.932Z,29.37
2022-08-17T12:40:59.794Z,29.61
2022-08-17T12:43:32.802Z,29.82
2022-08-17T12:46:10.697Z,29.93
2022-08-17T12:48:59.388Z,30.03
2022-08-17T12:51:29.463Z,30.29
2022-08-17T12:53:58.452Z,30.41
2022-08-17T12:56:26.690Z,30.41
2022-08-17T12:58:56.584Z,30.66
2022-08-17T13:01:25.180Z,31.03
2022-08-17T13:03:59.642Z,30.81
2022-08-17T13:06:31.600Z,31.13
2022-08-17T13:09:10.311Z,30.96
2022-08-17T13:11:48.777Z,31.21
2022-08-17T13:14:18.425Z,31.07
2022-08-17T13:16:52.705Z,30.95
2022-08-17T13:19:40.096Z,31.22
2022-08-17T13:22:12.983Z,31.34
2022-08-17T13:24:54.340Z,31.59
2022-08-17T13:27:25.318Z,31.72
2022-08-17T13:29:55.778Z,31.60
2022-08-17T13:32:36.347Z,31.80
2022-08-17T13:35:32.418Z,31.76
2022-08-17T13:38:10.078Z,31.67
2022-08-17T13:40:43.842Z,31.80
2022-08-17T13:43:12.107Z,31.94
2022-08-17T13:45:52.587Z,31.60
2022-08-17T13:48:24.933Z,31.66
2022-08-17T13:51:16.532Z,31.70
2022-08-17T13:53:55.451Z,31.85
2022-08-17T13:56:37.008Z,32.05
2022-08-17T13:59:12.254Z,32.09
2022-08-17T14:01:42.331Z,32.14
2022-08-17T14:04:12.616Z,32.11
2022-08-17T14:06:52.905Z,32.15
2022-08-17T14:09:25.176Z,32.23
2022-08-17T14:11:56.242Z,32.41
2022-08-17T14:14:24.088Z,32.48
2022-08-17T14:16:53.068Z,32.43
2022-08-17T14:19:22.121Z,32.49
2022-08-17T14:21:50.950Z,32.48
2022-08-17T14:24:23.638Z,32.47
2022-08-17T14:26:53.465Z,32.45
2022-08-17T14:29:24.152Z,32.50
2022-08-17T14:31:54.240Z,32.44
2022-08-17T14:34:23.074Z,32.36
2022-08-17T14:36:52.010Z,32.60
2022-08-17T14:39:20.194Z,33.13
2022-08-17T14:41:48.227Z,33.50
2022-08-17T14:44:16.261Z,33.84
2022-08-17T14:46:46.568Z,33.82
2022-08-17T14:49:15.634Z,33.59
2022-08-17T14:51:44.689Z,33.74
2022-08-17T14:54:25.590Z,33.78
2022-08-17T14:57:23.018Z,33.46
2022-08-17T14:59:53.199Z,33.27
2022-08-17T15:02:27.973Z,33.13
2022-08-17T15:05:00.606Z,33.16
2022-08-17T15:07:30.563Z,33.04
2022-08-17T15:10:00.407Z,32.79
2022-08-17T15:12:33.173Z,32.77
2022-08-17T15:15:04.517Z,32.82
2022-08-17T15:17:45.021Z,32.97
2022-08-17T15:20:15.757Z,32.91
2022-08-17T15:22:45.095Z,32.93
2022-08-17T15:25:14.944Z,32.86
2022-08-17T15:27:43.119Z,32.95
2022-08-17T15:30:12.187Z,32.94
2022-08-17T15:32:50.864Z,32.71
2022-08-17T15:35:26.870Z,32.74
2022-08-17T15:37:57.642Z,32.84
2022-08-17T15:40:26.438Z,32.91
2022-08-17T15:42:54.119Z,32.93
2022-08-17T15:45:27.426Z,32.83
2022-08-17T15:47:56.463Z,32.82
2022-08-17T15:50:24.595Z,32.67
2022-08-17T15:52:57.932Z,32.56
2022-08-17T15:55:27.431Z,32.51
2022-08-17T15:57:55.296Z,32.46
2022-08-17T16:00:24.275Z,32.39
2022-08-17T16:03:16.042Z,32.34
2022-08-17T16:05:41.601Z,32.18
2022-08-17T16:08:11.005Z,32.15
2022-08-17T16:10:39.480Z,32.12
2022-08-17T16:13:17.506Z,32.07
2022-08-17T16:15:53.102Z,32.04
2022-08-17T16:18:30.793Z,31.93
2022-08-17T16:21:22.762Z,31.88
2022-08-17T16:23:52.268Z,31.81
2022-08-17T16:26:20.767Z,31.66
2022-08-17T16:28:48.424Z,31.57
2022-08-17T16:31:17.075Z,31.40
2022-08-17T16:34:15.816Z,31.34
2022-08-17T16:36:34.428Z,31.32
2022-08-17T16:39:02.316Z,31.29
2022-08-17T16:41:45.857Z,31.23
2022-08-17T16:44:15.618Z,31.19
2022-08-17T16:46:45.744Z,31.14
2022-08-17T16:49:36.057Z,31.05
2022-08-17T16:52:05.226Z,30.95
2022-08-17T16:54:33.455Z,30.82
2022-08-17T16:57:03.918Z,30.73
2022-08-17T16:59:41.853Z,30.63
2022-08-17T17:02:15.225Z,30.42
2022-08-17T17:04:50.215Z,30.30
2022-08-17T17:07:42.372Z,30.08
2022-08-17T17:10:13.526Z,30.01
2022-08-17T17:13:02.090Z,29.96
2022-08-17T17:15:41.409Z,29.81
2022-08-17T17:18:13.964Z,29.69
2022-08-17T17:20:48.594Z,29.58
2022-08-17T17:23:34.906Z,29.49
2022-08-17T17:26:12.894Z,29.35
2022-08-17T17:28:56.859Z,29.23
2022-08-17T17:31:28.335Z,29.09
2022-08-17T17:33:58.198Z,28.97
2022-08-17T17:36:30.157Z,28.89
2022-08-17T17:39:05.285Z,28.81
2022-08-17T17:41:38.060Z,28.71
2022-08-17T17:44:09.307Z,28.58
2022-08-17T17:46:43.331Z,28.46
2022-08-17T17:49:14.030Z,28.38
2022-08-17T17:52:06.548Z,28.30
2022-08-17T17:54:53.957Z,28.23
2022-08-17T17:57:32.317Z,28.17
2022-08-17T18:00:08.304Z,28.10
2022-08-17T18:02:55.657Z,28.03
2022-08-17T18:05:35.886Z,27.94
2022-08-17T18:08:14.372Z,27.87
2022-08-17T18:10:50.868Z,27.77
2022-08-17T18:13:28.249Z,27.66
2022-08-17T18:16:00.668Z,27.57
2022-08-17T18:18:38.720Z,27.47
2022-08-17T18:21:19.257Z,27.40
2022-08-17T18:23:51.198Z,27.31
2022-08-17T18:26:37.515Z,27.26
2022-08-17T18:29:21.412Z,27.18
2022-08-17T18:31:52.451Z,27.10
2022-08-17T18:34:45.833Z,27.05
2022-08-17T18:37:16.020Z,26.98
2022-08-17T18:39:47.102Z,26.90
2022-08-17T18:42:27.568Z,26.85
2022-08-17T18:44:56.676Z,26.81
2022-08-17T18:47:27.155Z,26.74
2022-08-17T18:49:58.681Z,26.70
2022-08-17T18:52:29.023Z,26.66
2022-08-17T18:55:03.934Z,26.60
2022-08-17T18:57:35.234Z,26.52
2022-08-17T19:00:12.509Z,26.53
2022-08-17T19:02:52.601Z,26.46
2022-08-17T19:05:31.668Z,26.41
2022-08-17T19:08:20.125Z,26.27
2022-08-17T19:10:49.793Z,26.12
2022-08-17T19:13:24.457Z,26.08
2022-08-17T19:16:11.908Z,26.01
2022-08-17T19:18:47.751Z,25.99
2022-08-17T19:21:19.384Z,25.94
2022-08-17T19:23:54.187Z,25.94
2022-08-17T19:26:54.285Z,25.88
2022-08-17T19:29:19.622Z,25.83
2022-08-17T19:31:50.696Z,25.57
2022-08-17T19:34:30.323Z,25.29
2022-08-17T19:37:08.905Z,25.43
2022-08-17T19:39:44.465Z,25.63
2022-08-17T19:42:33.291Z,25.64
2022-08-17T19:45:09.396Z,25.68
2022-08-17T19:47:55.356Z,25.69
2022-08-17T19:50:41.576Z,25.68
2022-08-17T19:53:19.837Z,25.65
2022-08-17T19:55:54.796Z,25.65
2022-08-17T19:58:34.602Z,25.64
2022-08-17T20:01:08.051Z,25.62
2022-08-17T20:03:43.752Z,25.63
2022-08-17T20:06:13.994Z,25.59
2022-08-17T20:08:54.840Z,25.55
2022-08-17T20:11:28.916Z,25.48
2022-08-17T20:14:02.147Z,25.47
2022-08-17T20:16:33.226Z,25.43
2022-08-17T20:19:04.499Z,25.42
2022-08-17T20:21:37.830Z,25.39
2022-08-17T20:24:20.141Z,25.33
2022-08-17T20:26:58.090Z,25.16
2022-08-17T20:29:39.937Z,24.93
2022-08-17T20:32:32.320Z,24.56
2022-08-17T20:35:09.376Z,24.13
2022-08-17T20:37:43.123Z,23.58
2022-08-17T20:40:33.507Z,22.79
2022-08-17T20:43:39.868Z,22.64
2022-08-17T20:46:28.053Z,22.21
2022-08-17T20:49:01.394Z,21.97
2022-08-17T20:51:33.504Z,21.65
2022-08-17T20:54:07.932Z,21.37
2022-08-17T20:56:56.105Z,21.53
2022-08-17T20:59:56.408Z,21.73
2022-08-17T21:02:28.932Z,21.85
2022-08-17T21:05:08.250Z,22.03
2022-08-17T21:07:54.502Z,21.94
2022-08-17T21:10:38.333Z,21.89
2022-08-17T21:13:32.510Z,21.77
2022-08-17T21:16:08.199Z,21.48
2022-08-17T21:18:45.428Z,21.14
2022-08-17T21:21:24.912Z,20.60
2022-08-17T21:24:11.935Z,20.61
2022-08-17T21:26:55.334Z,20.32
2022-08-17T21:29:31.020Z,20.09
2022-08-17T21:32:28.124Z,19.99
2022-08-17T21:35:39.079Z,19.91
2022-08-17T21:38:15.923Z,19.83
2022-08-17T21:40:49.975Z,19.80
2022-08-17T21:43:24.414Z,19.93
2022-08-17T21:45:59.459Z,19.39
2022-08-17T21:48:28.531Z,19.40
2022-08-17T21:51:04.295Z,19.11
2022-08-17T21:53:39.042Z,18.92
2022-08-17T21:56:08.995Z,18.90
2022-08-17T21:58:40.908Z,19.06
2022-08-17T22:01:27.588Z,18.89
2022-08-17T22:03:58.994Z,19.11
2022-08-17T22:06:29.763Z,18.95
2022-08-17T22:09:12.284Z,18.96
2022-08-17T22:11:52.858Z,18.88
2022-08-17T22:14:22.371Z,19.03
2022-08-17T22:17:07.837Z,18.99
2022-08-17T22:19:36.838Z,19.15
2022-08-17T22:22:06.483Z,18.89
2022-08-17T22:24:37.131Z,18.72
2022-08-17T22:27:08.229Z,18.58
2022-08-17T22:29:57.837Z,18.52
2022-08-17T22:32:48.226Z,18.95
2022-08-17T22:35:34.037Z,19.17
2022-08-17T22:38:28.717Z,19.28
2022-08-17T22:41:16.358Z,19.32
2022-08-17T22:43:44.910Z,19.38
2022-08-17T22:46:15.268Z,19.24
2022-08-17T22:48:50.127Z,19.28
2022-08-17T22:51:24.863Z,19.17
2022-08-17T22:54:13.145Z,19.27
2022-08-17T22:57:18.811Z,19.18
2022-08-17T22:59:49.434Z,18.91
2022-08-17T23:02:24.404Z,18.84
2022-08-17T23:04:57.707Z,19.09
2022-08-17T23:07:25.500Z,19.07
2022-08-17T23:09:54.801Z,19.04
2022-08-17T23:12:27.504Z,19.04
2022-08-17T23:15:02.011Z,19.15
2022-08-17T23:17:37.219Z,19.24
2022-08-17T23:20:08.203Z,19.00
2022-08-17T23:22:37.976Z,18.87
2022-08-17T23:25:27.351Z,19.18
2022-08-17T23:27:57.288Z,19.30
2022-08-17T23:30:28.708Z,19.38
2022-08-17T23:32:56.812Z,19.44
2022-08-17T23:35:39.824Z,19.26
2022-08-17T23:38:12.400Z,19.20
2022-08-17T23:40:41.422Z,19.24
2022-08-17T23:43:23.720Z,19.15
2022-08-17T23:45:54.320Z,19.36
2022-08-17T23:48:35.479Z,19.23
2022-08-17T23:51:09.616Z,19.11
2022-08-17T23:53:40.367Z,19.24
2022-08-17T23:56:11.489Z,19.32
2022-08-17T23:58:42.936Z,19.18
